createdAt,value
2022-08-17T00:00:00.309Z,881.0
2022-08-17T00:01:00.454Z,880.9
2022-08-17T00:02:00.329Z,880.9
2022-08-17T00:03:00.312Z,880.9
2022-08-17T00:04:00.510Z,880.9
2022-08-17T00:05:00.345Z,880.9
2022-08-17T00:06:00.317Z,880.9
2022-08-17T00:07:00.316Z,881.0
2022-08-17T00:08:00.428Z,880.9
2022-08-17T00:09:00.367Z,881.0
2022-08-17T00:10:00.479Z,881.0
2022-08-17T00:11:00.423Z,881.0
2022-08-17T00:12:40.695Z,881.0
2022-08-17T00:13:00.292Z,881.0
2022-08-17T00:14:00.328Z,881.0
2022-08-17T00:15:00.321Z,881.0
2022-08-17T00:16:00.459Z,881.0
2022-08-17T00:17:00.423Z,881.0
2022-08-17T00:18:00.333Z,881.0
2022-08-17T00:19:07.973Z,881.0
2022-08-17T00:20:00.434Z,881.1
2022-08-17T00:21:00.315Z,881.1
2022-08-17T00:22:32.178Z,881.1
2022-08-17T00:23:00.320Z,881.1
2022-08-17T00:24:00.322Z,881.1
2022-08-17T00:25:00.436Z,881.1
2022-08-17T00:26:00.355Z,881.1
2022-08-17T00:27:00.333Z,881.1
2022-08-17T00:28:00.334Z,881.1
2022-08-17T00:29:00.332Z,881.1
2022-08-17T00:30:00.324Z,881.1
2022-08-17T00:31:00.431Z,881.1
2022-08-17T00:32:00.318Z,881.1
2022-08-17T00:33:11.986Z,881.1
2022-08-17T00:34:00.327Z,881.1
2022-08-17T00:35:00.341Z,881.0
2022-08-17T00:36:00.574Z,881.1
2022-08-17T00:37:00.337Z,881.0
2022-08-17T00:38:00.383Z,881.1
2022-08-17T00:39:00.300Z,881.1
2022-08-17T00:40:00.512Z,881.0
2022-08-17T00:41:00.364Z,881.1
2022-08-17T00:42:00.446Z,881.1
2022-08-17T00:43:00.385Z,881.1
2022-08-17T00:44:00.395Z,881.1
2022-08-17T00:45:00.376Z,881.1
2022-08-17T00:46:00.374Z,881.1
2022-08-17T00:47:00.403Z,881.1
2022-08-17T00:48:00.405Z,881.1
2022-08-17T00:49:00.455Z,881.1
2022-08-17T00:50:00.369Z,881.1
2022-08-17T00:51:00.393Z,881.1
2022-08-17T00:52:00.427Z,881.1
2022-08-17T00:53:00.329Z,881.1
2022-08-17T00:54:00.399Z,881.1
2022-08-17T00:55:00.491Z,881.1
2022-08-17T00:56:00.312Z,881.1
2022-08-17T00:57:00.330Z,881.1
2022-08-17T00:58:00.311Z,881.1
2022-08-17T00:59:00.374Z,881.1
2022-08-17T01:00:03.125Z,881.2
2022-08-17T01:01:00.395Z,881.1
2022-08-17T01:02:00.412Z,881.2
2022-08-17T01:03:00.315Z,881.1
2022-08-17T01:04:00.300Z,881.2
2022-08-17T01:05:00.308Z,881.2
2022-08-17T01:06:00.305Z,881.2
2022-08-17T01:07:00.324Z,881.2
2022-08-17T01:08:00.458Z,881.3
2022-08-17T01:09:00.329Z,881.2
2022-08-17T01:10:00.299Z,881.2
2022-08-17T01:11:01.832Z,881.2
2022-08-17T01:12:00.303Z,881.2
2022-08-17T01:13:00.353Z,881.2
2022-08-17T01:14:00.311Z,881.2
2022-08-17T01:15:00.401Z,881.2
2022-08-17T01:16:00.313Z,881.2
2022-08-17T01:17:00.416Z,881.2
2022-08-17T01:18:00.324Z,881.2
2022-08-17T01:19:00.310Z,881.2
2022-08-17T01:20:00.404Z,881.2
2022-08-17T01:21:00.312Z,881.2
2022-08-17T01:22:00.336Z,881.2
2022-08-17T01:23:00.302Z,881.2
2022-08-17T01:24:00.321Z,881.2
2022-08-17T01:25:00.337Z,881.2
2022-08-17T01:26:00.421Z,881.2
2022-08-17T01:27:00.338Z,881.2
2022-08-17T01:28:00.307Z,881.2
2022-08-17T01:29:00.304Z,881.3
2022-08-17T01:30:00.326Z,881.3
2022-08-17T01:31:00.331Z,881.3
2022-08-17T01:32:00.450Z,881.3
2022-08-17T01:33:00.536Z,881.3
2022-08-17T01:34:00.600Z,881.3
2022-08-17T01:35:00.311Z,881.3
2022-08-17T01:36:00.315Z,881.3
2022-08-17T01:37:00.302Z,881.3
2022-08-17T01:38:00.403Z,881.3
2022-08-17T01:39:00.326Z,881.3
2022-08-17T01:40:00.468Z,881.3
2022-08-17T01:41:00.327Z,881.3
2022-08-17T01:42:00.300Z,881.3
2022-08-17T01:43:00.338Z,881.3
2022-08-17T01:44:00.433Z,881.3
2022-08-17T01:45:00.311Z,881.4
2022-08-17T01:46:02.817Z,881.3
2022-08-17T01:47:00.404Z,881.4
2022-08-17T01:48:00.368Z,881.4
2022-08-17T01:49:00.341Z,881.4
2022-08-17T01:50:00.366Z,881.4
2022-08-17T01:51:00.460Z,881.4
2022-08-17T01:52:00.328Z,881.4
2022-08-17T01:53:00.477Z,881.5
2022-08-17T01:54:00.331Z,881.5
2022-08-17T01:55:00.356Z,881.5
2022-08-17T01:56:00.313Z,881.5
2022-08-17T01:57:00.307Z,881.5
2022-08-17T01:58:02.068Z,881.5
2022-08-17T01:59:00.411Z,881.5
2022-08-17T02:00:00.341Z,881.5
2022-08-17T02:01:01.635Z,881.5
2022-08-17T02:02:00.325Z,881.5
2022-08-17T02:03:00.327Z,881.5
2022-08-17T02:04:01.600Z,881.5
2022-08-17T02:05:00.417Z,881.5
2022-08-17T02:06:00.402Z,881.4
2022-08-17T02:07:00.304Z,881.4
2022-08-17T02:08:00.902Z,881.5
2022-08-17T02:09:02.340Z,881.5
2022-08-17T02:10:00.317Z,881.5
2022-08-17T02:11:00.482Z,881.5
2022-08-17T02:12:00.382Z,881.5
2022-08-17T02:13:00.362Z,881.5
2022-08-17T02:14:03.582Z,881.5
2022-08-17T02:15:00.299Z,881.5
2022-08-17T02:16:00.303Z,881.5
2022-08-17T02:17:00.392Z,881.5
2022-08-17T02:18:00.308Z,881.5
2022-08-17T02:19:00.325Z,881.5
2022-08-17T02:20:00.314Z,881.5
2022-08-17T02:21:00.315Z,881.5
2022-08-17T02:22:00.333Z,881.5
2022-08-17T02:23:00.404Z,881.5
2022-08-17T02:24:00.338Z,881.5
2022-08-17T02:25:02.275Z,881.5
2022-08-17T02:26:00.355Z,881.5
2022-08-17T02:27:00.333Z,881.5
2022-08-17T02:28:00.338Z,881.5
2022-08-17T02:29:00.454Z,881.5
2022-08-17T02:30:00.333Z,881.5
2022-08-17T02:31:03.009Z,881.5
2022-08-17T02:32:00.320Z,881.5
2022-08-17T02:33:00.333Z,881.5
2022-08-17T02:34:04.695Z,881.5
2022-08-17T02:35:00.404Z,881.5
2022-08-17T02:36:00.309Z,881.5
2022-08-17T02:37:00.352Z,881.5
2022-08-17T02:38:00.369Z,881.5
2022-08-17T02:39:00.315Z,881.5
2022-08-17T02:40:00.469Z,881.5
2022-08-17T02:41:00.455Z,881.5
2022-08-17T02:42:00.345Z,881.5
2022-08-17T02:43:00.405Z,881.5
2022-08-17T02:44:00.426Z,881.5
2022-08-17T02:45:00.400Z,881.5
2022-08-17T02:46:00.333Z,881.5
2022-08-17T02:47:00.288Z,881.6
2022-08-17T02:48:00.502Z,881.6
2022-08-17T02:49:00.318Z,881.5
2022-08-17T02:50:00.316Z,881.6
2022-08-17T02:51:00.333Z,881.5
2022-08-17T02:52:00.359Z,881.6
2022-08-17T02:53:02.262Z,881.5
2022-08-17T02:54:40.317Z,881.6
2022-08-17T02:55:00.294Z,881.6
2022-08-17T02:56:00.334Z,881.6
2022-08-17T02:57:00.367Z,881.6
2022-08-17T02:58:00.322Z,881.6
2022-08-17T02:59:00.448Z,881.6
2022-08-17T03:00:00.396Z,881.6
2022-08-17T03:01:00.327Z,881.7
2022-08-17T03:02:00.370Z,881.7
2022-08-17T03:03:00.306Z,881.7
2022-08-17T03:04:00.322Z,881.7
2022-08-17T03:05:00.293Z,881.7
2022-08-17T03:06:00.377Z,881.7
2022-08-17T03:07:00.348Z,881.7
2022-08-17T03:08:00.359Z,881.7
2022-08-17T03:09:00.305Z,881.7
2022-08-17T03:10:00.372Z,881.8
2022-08-17T03:11:00.311Z,881.8
2022-08-17T03:12:00.503Z,881.8
2022-08-17T03:13:00.337Z,881.8
2022-08-17T03:14:00.302Z,881.8
2022-08-17T03:15:00.399Z,881.8
2022-08-17T03:16:00.392Z,881.8
2022-08-17T03:17:00.400Z,881.8
2022-08-17T03:18:00.420Z,881.8
2022-08-17T03:19:00.325Z,881.8
2022-08-17T03:20:00.297Z,881.8
2022-08-17T03:21:00.291Z,881.9
2022-08-17T03:22:00.313Z,881.9
2022-08-17T03:23:02.840Z,881.9
2022-08-17T03:24:00.368Z,881.9
2022-08-17T03:25:00.275Z,882.0
2022-08-17T03:26:00.336Z,882.0
2022-08-17T03:27:00.269Z,882.0
2022-08-17T03:28:00.317Z,882.0
2022-08-17T03:29:00.292Z,882.0
2022-08-17T03:30:00.393Z,882.0
2022-08-17T03:31:00.300Z,882.0
2022-08-17T03:32:00.308Z,882.0
2022-08-17T03:33:00.288Z,882.0
2022-08-17T03:34:00.334Z,882.0
2022-08-17T03:35:00.311Z,882.0
2022-08-17T03:36:00.362Z,882.0
2022-08-17T03:37:00.327Z,882.0
2022-08-17T03:38:01.192Z,882.0
2022-08-17T03:39:00.322Z,882.0
2022-08-17T03:40:00.433Z,882.0
2022-08-17T03:41:00.389Z,882.0
2022-08-17T03:42:00.404Z,881.9
2022-08-17T03:43:00.277Z,882.0
2022-08-17T03:44:00.311Z,882.0
2022-08-17T03:45:00.288Z,882.0
2022-08-17T03:46:00.431Z,882.0
2022-08-17T03:47:00.363Z,882.0
2022-08-17T03:48:00.403Z,882.0
2022-08-17T03:49:00.282Z,882.0
2022-08-17T03:50:00.283Z,882.0
2022-08-17T03:51:00.265Z,882.0
2022-08-17T03:52:00.301Z,882.0
2022-08-17T03:53:00.374Z,882.0
2022-08-17T03:54:00.311Z,882.0
2022-08-17T03:55:00.281Z,882.0
2022-08-17T03:56:00.278Z,882.0
2022-08-17T03:57:00.315Z,882.0
2022-08-17T03:58:00.307Z,882.0
2022-08-17T03:59:00.386Z,882.0
2022-08-17T04:00:00.306Z,882.0
2022-08-17T04:01:00.441Z,882.0
2022-08-17T04:02:00.300Z,882.0
2022-08-17T04:03:00.274Z,882.0
2022-08-17T04:04:00.288Z,882.0
2022-08-17T04:05:00.393Z,882.0
2022-08-17T04:06:00.273Z,881.9
2022-08-17T04:07:00.301Z,881.9
2022-08-17T04:08:00.371Z,882.0
2022-08-17T04:09:00.307Z,882.0
2022-08-17T04:10:00.330Z,882.0
2022-08-17T04:11:00.406Z,882.0
2022-08-17T04:12:02.242Z,882.0
2022-08-17T04:13:00.355Z,881.9
2022-08-17T04:14:00.293Z,881.9
2022-08-17T04:15:00.355Z,882.0
2022-08-17T04:16:00.371Z,882.0
2022-08-17T04:17:00.485Z,881.9
2022-08-17T04:18:00.292Z,882.0
2022-08-17T04:19:00.277Z,882.0
2022-08-17T04:20:00.536Z,882.0
2022-08-17T04:21:00.485Z,882.0
2022-08-17T04:22:00.344Z,881.9
2022-08-17T04:23:00.402Z,881.9
2022-08-17T04:24:00.371Z,881.9
2022-08-17T04:25:00.375Z,881.9
2022-08-17T04:26:00.294Z,882.0
2022-08-17T04:27:00.360Z,881.9
2022-08-17T04:28:00.329Z,881.9
2022-08-17T04:29:00.301Z,881.9
2022-08-17T04:30:00.390Z,881.9
2022-08-17T04:31:00.321Z,881.9
2022-08-17T04:32:00.305Z,881.9
2022-08-17T04:33:06.405Z,881.9
2022-08-17T04:34:00.316Z,881.8
2022-08-17T04:35:00.392Z,881.8
2022-08-17T04:36:00.336Z,881.8
2022-08-17T04:37:00.316Z,881.8
2022-08-17T04:38:00.412Z,881.8
2022-08-17T04:39:00.303Z,881.9
2022-08-17T04:40:03.942Z,881.8
2022-08-17T04:41:00.302Z,881.8
2022-08-17T04:42:00.308Z,881.8
2022-08-17T04:43:01.108Z,881.8
2022-08-17T04:44:00.305Z,881.7
2022-08-17T04:45:00.297Z,881.8
2022-08-17T04:46:00.428Z,881.7
2022-08-17T04:47:00.314Z,881.7
2022-08-17T04:48:00.306Z,881.7
2022-08-17T04:49:00.292Z,881.7
2022-08-17T04:50:00.344Z,881.7
2022-08-17T04:51:00.343Z,881.7
2022-08-17T04:52:04.347Z,881.7
2022-08-17T04:53:00.798Z,881.7
2022-08-17T04:54:00.370Z,881.7
2022-08-17T04:55:00.319Z,881.7
2022-08-17T04:56:00.356Z,881.7
2022-08-17T04:57:00.313Z,881.8
2022-08-17T04:58:00.425Z,881.8
2022-08-17T04:59:00.322Z,881.8
2022-08-17T05:00:00.305Z,881.8
2022-08-17T05:01:00.440Z,881.8
2022-08-17T05:02:00.319Z,881.8
2022-08-17T05:03:00.390Z,881.8
2022-08-17T05:04:00.317Z,881.8
2022-08-17T05:05:00.320Z,881.8
2022-08-17T05:06:00.333Z,881.8
2022-08-17T05:07:00.288Z,881.8
2022-08-17T05:08:00.316Z,881.8
2022-08-17T05:09:00.387Z,881.8
2022-08-17T05:10:00.305Z,881.8
2022-08-17T05:11:00.305Z,881.8
2022-08-17T05:12:00.288Z,881.8
2022-08-17T05:13:00.306Z,881.8
2022-08-17T05:14:00.302Z,881.8
2022-08-17T05:15:00.407Z,881.8
2022-08-17T05:16:00.411Z,881.8
2022-08-17T05:17:00.327Z,881.8
2022-08-17T05:18:00.335Z,881.8
2022-08-17T05:19:00.327Z,881.8
2022-08-17T05:20:00.339Z,881.8
2022-08-17T05:21:00.375Z,881.8
2022-08-17T05:22:00.502Z,881.8
2022-08-17T05:23:00.426Z,881.8
2022-08-17T05:24:00.325Z,881.8
2022-08-17T05:25:02.704Z,881.9
2022-08-17T05:26:00.360Z,881.8
2022-08-17T05:27:03.858Z,881.8
2022-08-17T05:28:00.387Z,881.8
2022-08-17T05:29:02.755Z,881.8
2022-08-17T05:30:00.425Z,881.8
2022-08-17T05:31:00.389Z,881.9
2022-08-17T05:32:00.404Z,881.8
2022-08-17T05:33:00.328Z,881.8
2022-08-17T05:34:00.424Z,881.8
2022-08-17T05:35:00.600Z,881.8
2022-08-17T05:36:00.305Z,881.8
2022-08-17T05:37:00.313Z,881.9
2022-08-17T05:38:00.420Z,881.9
2022-08-17T05:39:00.299Z,881.9
2022-08-17T05:40:00.540Z,881.9
2022-08-17T05:41:00.325Z,881.8
2022-08-17T05:42:00.319Z,881.9
2022-08-17T05:43:00.302Z,881.9
2022-08-17T05:44:00.320Z,881.9
2022-08-17T05:45:00.382Z,881.9
2022-08-17T05:46:00.359Z,881.9
2022-08-17T05:47:00.398Z,881.9
2022-08-17T05:48:00.360Z,881.9
2022-08-17T05:49:00.280Z,882.0
2022-08-17T05:50:00.476Z,882.0
2022-08-17T05:51:00.335Z,882.0
2022-08-17T05:52:00.364Z,882.0
2022-08-17T05:53:00.307Z,882.0
2022-08-17T05:54:00.320Z,882.0
2022-08-17T05:55:00.299Z,882.0
2022-08-17T05:56:00.395Z,882.0
2022-08-17T05:57:00.342Z,881.9
2022-08-17T05:58:00.339Z,881.9
2022-08-17T05:59:00.316Z,881.9
2022-08-17T06:00:00.375Z,881.9
2022-08-17T06:01:00.533Z,881.9
2022-08-17T06:02:00.297Z,881.9
2022-08-17T06:03:00.323Z,881.9
2022-08-17T06:04:00.303Z,881.9
2022-08-17T06:05:00.323Z,881.9
2022-08-17T06:06:00.689Z,881.9
2022-08-17T06:07:00.308Z,881.9
2022-08-17T06:08:00.301Z,881.9
2022-08-17T06:09:00.295Z,881.9
2022-08-17T06:10:00.302Z,881.9
2022-08-17T06:11:00.304Z,881.9
2022-08-17T06:12:00.395Z,881.9
2022-08-17T06:13:00.315Z,881.8
2022-08-17T06:14:00.332Z,881.9
2022-08-17T06:15:00.438Z,881.9
2022-08-17T06:16:00.360Z,881.9
2022-08-17T06:17:00.346Z,881.9
2022-08-17T06:18:00.432Z,881.9
2022-08-17T06:19:00.394Z,881.9
2022-08-17T06:20:00.288Z,881.9
2022-08-17T06:21:00.321Z,881.9
2022-08-17T06:22:00.307Z,881.9
2022-08-17T06:23:00.516Z,881.8
2022-08-17T06:24:00.373Z,881.9
2022-08-17T06:25:00.386Z,881.9
2022-08-17T06:26:00.369Z,881.9
2022-08-17T06:27:00.318Z,881.9
2022-08-17T06:28:00.458Z,881.9
2022-08-17T06:29:00.302Z,881.9
2022-08-17T06:30:00.500Z,881.9
2022-08-17T06:31:01.284Z,881.9
2022-08-17T06:32:00.299Z,881.9
2022-08-17T06:33:00.320Z,881.9
2022-08-17T06:34:00.303Z,881.9
2022-08-17T06:35:00.315Z,881.9
2022-08-17T06:36:00.307Z,881.9
2022-08-17T06:37:00.449Z,881.9
2022-08-17T06:38:00.298Z,881.9
2022-08-17T06:39:00.316Z,881.9
2022-08-17T06:40:00.419Z,881.9
2022-08-17T06:41:00.323Z,881.9
2022-08-17T06:42:00.303Z,881.9
2022-08-17T06:43:05.694Z,882.0
2022-08-17T06:44:00.308Z,882.0
2022-08-17T06:45:00.392Z,881.9
2022-08-17T06:46:00.307Z,881.9
2022-08-17T06:47:00.314Z,881.9
2022-08-17T06:48:00.310Z,882.0
2022-08-17T06:49:00.409Z,881.9
2022-08-17T06:50:00.336Z,881.9
2022-08-17T06:51:00.396Z,881.8
2022-08-17T06:52:00.290Z,881.9
2022-08-17T06:53:00.486Z,881.8
2022-08-17T06:54:00.455Z,881.9
2022-08-17T06:55:00.364Z,881.9
2022-08-17T06:56:00.395Z,881.9
2022-08-17T06:57:00.328Z,881.9
2022-08-17T06:58:00.329Z,881.9
2022-08-17T06:59:00.353Z,881.9
2022-08-17T07:00:00.454Z,881.8
2022-08-17T07:01:00.340Z,881.8
2022-08-17T07:02:00.320Z,881.8
2022-08-17T07:03:00.308Z,881.9
2022-08-17T07:04:00.349Z,881.9
2022-08-17T07:05:00.361Z,881.8
2022-08-17T07:06:00.467Z,881.8
2022-08-17T07:07:00.356Z,881.7
2022-08-17T07:08:00.329Z,881.8
2022-08-17T07:09:00.311Z,881.7
2022-08-17T07:10:00.300Z,881.8
2022-08-17T07:11:00.517Z,881.8
2022-08-17T07:12:00.317Z,881.7
2022-08-17T07:13:00.282Z,881.8
2022-08-17T07:14:00.295Z,881.7
2022-08-17T07:15:00.388Z,881.7
2022-08-17T07:16:00.287Z,881.7
2022-08-17T07:17:00.405Z,881.7
2022-08-17T07:18:00.579Z,881.7
2022-08-17T07:19:00.381Z,881.7
2022-08-17T07:20:00.317Z,881.7
2022-08-17T07:21:00.325Z,881.7
2022-08-17T07:22:00.376Z,881.7
2022-08-17T07:23:00.723Z,881.6
2022-08-17T07:24:00.392Z,881.6
2022-08-17T07:25:00.311Z,881.6
2022-08-17T07:26:00.301Z,881.6
2022-08-17T07:27:00.322Z,881.6
2022-08-17T07:28:00.329Z,881.6
2022-08-17T07:29:00.389Z,881.6
2022-08-17T07:30:00.396Z,881.6
2022-08-17T07:31:00.298Z,881.6
2022-08-17T07:32:00.327Z,881.6
2022-08-17T07:33:00.323Z,881.5
2022-08-17T07:34:00.313Z,881.5
2022-08-17T07:35:00.491Z,881.5
2022-08-17T07:36:00.338Z,881.5
2022-08-17T07:37:00.333Z,881.5
2022-08-17T07:38:00.300Z,881.5
2022-08-17T07:39:00.385Z,881.5
2022-08-17T07:40:16.065Z,881.5
2022-08-17T07:41:00.408Z,881.5
2022-08-17T07:42:00.325Z,881.4
2022-08-17T07:43:00.431Z,881.4
2022-08-17T07:44:00.377Z,881.4
2022-08-17T07:45:00.488Z,881.4
2022-08-17T07:46:00.308Z,881.4
2022-08-17T07:47:00.436Z,881.4
2022-08-17T07:48:00.311Z,881.4
2022-08-17T07:49:00.311Z,881.4
2022-08-17T07:50:00.321Z,881.4
2022-08-17T07:51:00.333Z,881.3
2022-08-17T07:52:24.937Z,881.3
2022-08-17T07:53:00.403Z,881.4
2022-08-17T07:54:13.699Z,881.3
2022-08-17T07:55:00.345Z,881.3
2022-08-17T07:56:00.323Z,881.3
2022-08-17T07:57:00.316Z,881.3
2022-08-17T07:58:00.425Z,881.3
2022-08-17T07:59:00.434Z,881.3
2022-08-17T08:00:01.235Z,881.3
2022-08-17T08:01:00.389Z,881.2
2022-08-17T08:02:00.391Z,881.2
2022-08-17T08:03:00.317Z,881.2
2022-08-17T08:04:00.310Z,881.2
2022-08-17T08:05:01.672Z,881.2
2022-08-17T08:06:00.316Z,881.1
2022-08-17T08:07:00.326Z,881.1
2022-08-17T08:08:00.324Z,881.1
2022-08-17T08:09:00.383Z,881.1
2022-08-17T08:10:00.349Z,881.2
2022-08-17T08:11:00.449Z,881.1
2022-08-17T08:12:00.335Z,881.1
2022-08-17T08:13:00.472Z,881.1
2022-08-17T08:14:00.295Z,881.1
2022-08-17T08:15:00.305Z,881.1
2022-08-17T08:16:00.381Z,881.1
2022-08-17T08:17:00.418Z,881.0
2022-08-17T08:18:00.351Z,881.0
2022-08-17T08:19:00.466Z,881.0
2022-08-17T08:20:00.316Z,881.0
2022-08-17T08:21:00.324Z,881.0
2022-08-17T08:22:00.296Z,880.9
2022-08-17T08:23:00.306Z,880.9
2022-08-17T08:24:00.670Z,880.9
2022-08-17T08:25:00.301Z,880.9
2022-08-17T08:26:00.284Z,880.9
2022-08-17T08:27:00.310Z,880.9
2022-08-17T08:28:00.675Z,880.8
2022-08-17T08:29:00.297Z,880.9
2022-08-17T08:30:00.380Z,880.8
2022-08-17T08:31:00.311Z,880.8
2022-08-17T08:32:00.322Z,880.9
2022-08-17T08:33:00.299Z,880.8
2022-08-17T08:34:00.322Z,880.8
2022-08-17T08:35:02.961Z,880.8
2022-08-17T08:36:00.388Z,880.8
2022-08-17T08:37:16.519Z,880.8
2022-08-17T08:38:00.311Z,880.8
2022-08-17T08:39:00.330Z,880.8
2022-08-17T08:40:00.380Z,880.8
2022-08-17T08:41:00.385Z,880.8
2022-08-17T08:42:00.382Z,880.8
2022-08-17T08:43:00.381Z,880.7
2022-08-17T08:44:00.305Z,880.7
2022-08-17T08:45:04.607Z,880.7
2022-08-17T08:46:00.392Z,880.7
2022-08-17T08:47:00.316Z,880.6
2022-08-17T08:48:05.140Z,880.7
2022-08-17T08:49:06.528Z,880.6
2022-08-17T08:50:04.992Z,880.6
2022-08-17T08:51:00.421Z,880.6
2022-08-17T08:52:00.312Z,880.6
2022-08-17T08:53:00.397Z,880.6
2022-08-17T08:54:00.320Z,880.6
2022-08-17T08:55:00.406Z,880.5
2022-08-17T08:56:00.359Z,880.5
2022-08-17T08:57:23.296Z,880.5
2022-08-17T08:58:00.388Z,880.5
2022-08-17T08:59:00.451Z,880.5
2022-08-17T09:00:00.362Z,880.5
2022-08-17T09:01:00.473Z,880.5
2022-08-17T09:02:00.338Z,880.5
2022-08-17T09:03:00.337Z,880.5
2022-08-17T09:04:19.535Z,880.4
2022-08-17T09:05:14.794Z,880.4
2022-08-17T09:06:00.299Z,880.4
2022-08-17T09:07:00.337Z,880.4
2022-08-17T09:08:00.322Z,880.3
2022-08-17T09:09:00.330Z,880.4
2022-08-17T09:10:00.346Z,880.3
2022-08-17T09:11:00.410Z,880.4
2022-08-17T09:12:01.901Z,880.4
2022-08-17T09:13:09.277Z,880.3
2022-08-17T09:14:00.336Z,880.3
2022-08-17T09:15:00.339Z,880.3
2022-08-17T09:16:00.309Z,880.3
2022-08-17T09:17:00.410Z,880.2
2022-08-17T09:18:30.303Z,880.3
2022-08-17T09:19:04.516Z,880.2
2022-08-17T09:20:00.317Z,880.3
2022-08-17T09:21:00.330Z,880.2
2022-08-17T09:22:00.506Z,880.2
2022-08-17T09:23:00.459Z,880.2
2022-08-17T09:24:00.328Z,880.2
2022-08-17T09:25:00.387Z,880.2
2022-08-17T09:26:00.462Z,880.2
2022-08-17T09:27:00.351Z,880.2
2022-08-17T09:28:00.918Z,880.1
2022-08-17T09:29:00.386Z,880.1
2022-08-17T09:30:00.335Z,880.1
2022-08-17T09:31:00.417Z,880.1
2022-08-17T09:32:00.416Z,880.1
2022-08-17T09:33:00.366Z,880.1
2022-08-17T09:34:00.341Z,880.1
2022-08-17T09:35:00.304Z,880.1
2022-08-17T09:36:00.330Z,880.1
2022-08-17T09:37:00.426Z,880.1
2022-08-17T09:38:00.301Z,880.0
2022-08-17T09:39:00.343Z,880.0
2022-08-17T09:40:00.549Z,880.0
2022-08-17T09:41:00.458Z,880.0
2022-08-17T09:42:00.299Z,880.0
2022-08-17T09:43:00.539Z,880.0
2022-08-17T09:44:00.335Z,880.0
2022-08-17T09:45:00.317Z,880.0
2022-08-17T09:46:00.319Z,880.0
2022-08-17T09:47:00.297Z,880.0
2022-08-17T09:48:00.321Z,880.0
2022-08-17T09:49:00.392Z,879.9
2022-08-17T09:50:00.283Z,880.0
2022-08-17T09:51:05.966Z,879.9
2022-08-17T09:52:00.319Z,879.9
2022-08-17T09:53:00.416Z,879.9
2022-08-17T09:54:21.037Z,879.9
2022-08-17T09:55:00.425Z,879.9
2022-08-17T09:56:00.341Z,879.8
2022-08-17T09:57:25.814Z,879.9
2022-08-17T09:58:00.317Z,879.9
2022-08-17T09:59:00.322Z,879.9
2022-08-17T10:00:00.327Z,879.9
2022-08-17T10:01:00.426Z,879.9
2022-08-17T10:02:00.330Z,879.9
2022-08-17T10:03:00.310Z,879.9
2022-08-17T10:04:00.445Z,879.9
2022-08-17T10:05:00.396Z,879.9
2022-08-17T10:06:00.377Z,879.9
2022-08-17T10:07:00.402Z,879.9
2022-08-17T10:08:00.411Z,879.9
2022-08-17T10:09:00.430Z,879.9
2022-08-17T10:10:00.401Z,879.8
2022-08-17T10:11:00.336Z,879.8
2022-08-17T10:12:00.316Z,879.8
2022-08-17T10:13:00.562Z,879.8
2022-08-17T10:14:00.310Z,879.8
2022-08-17T10:15:07.702Z,879.8
2022-08-17T10:16:00.335Z,879.7
2022-08-17T10:17:00.289Z,879.8
2022-08-17T10:18:00.338Z,879.7
2022-08-17T10:19:00.520Z,879.7
2022-08-17T10:20:00.429Z,879.7
2022-08-17T10:21:00.333Z,879.7
2022-08-17T10:22:01.182Z,879.7
2022-08-17T10:23:00.385Z,879.6
2022-08-17T10:24:00.397Z,879.7
2022-08-17T10:25:20.975Z,879.7
2022-08-17T10:26:00.300Z,879.7
2022-08-17T10:27:00.291Z,879.7
2022-08-17T10:28:00.527Z,879.7
2022-08-17T10:29:00.307Z,879.7
2022-08-17T10:30:00.333Z,879.7
2022-08-17T10:31:23.392Z,879.7
2022-08-17T10:32:00.287Z,879.7
2022-08-17T10:33:00.305Z,879.7
2022-08-17T10:34:00.540Z,879.7
2022-08-17T10:35:00.326Z,879.6
2022-08-17T10:36:00.311Z,879.6
2022-08-17T10:37:00.435Z,879.6
2022-08-17T10:38:00.375Z,879.6
2022-08-17T10:39:00.472Z,879.6
2022-08-17T10:40:00.428Z,879.6
2022-08-17T10:41:00.314Z,879.6
2022-08-17T10:42:00.318Z,879.6
2022-08-17T10:43:00.381Z,879.5
2022-08-17T10:44:39.648Z,879.5
2022-08-17T10:45:00.454Z,879.5
2022-08-17T10:46:27.765Z,879.5
2022-08-17T10:47:00.432Z,879.5
2022-08-17T10:48:05.170Z,879.4
2022-08-17T10:49:00.319Z,879.4
2022-08-17T10:50:00.331Z,879.4
2022-08-17T10:51:00.469Z,879.4
2022-08-17T10:52:00.319Z,879.4
2022-08-17T10:53:00.383Z,879.4
2022-08-17T10:54:00.436Z,879.4
2022-08-17T10:55:00.281Z,879.3
2022-08-17T10:56:00.330Z,879.3
2022-08-17T10:57:00.288Z,879.3
2022-08-17T10:58:00.319Z,879.3
2022-08-17T10:59:00.510Z,879.3
2022-08-17T11:00:00.349Z,879.4
2022-08-17T11:01:00.443Z,879.4
2022-08-17T11:02:00.346Z,879.4
2022-08-17T11:03:00.411Z,879.4
2022-08-17T11:04:00.377Z,879.3
2022-08-17T11:05:00.371Z,879.3
2022-08-17T11:06:00.395Z,879.2
2022-08-17T11:07:00.469Z,879.2
2022-08-17T11:08:00.365Z,879.2
2022-08-17T11:09:00.410Z,879.2
2022-08-17T11:10:00.347Z,879.2
2022-08-17T11:11:00.330Z,879.1
2022-08-17T11:12:00.346Z,879.1
2022-08-17T11:13:00.472Z,879.2
2022-08-17T11:14:00.310Z,879.1
2022-08-17T11:15:00.288Z,879.1
2022-08-17T11:16:03.571Z,879.1
2022-08-17T11:17:00.307Z,879.0
2022-08-17T11:18:00.405Z,879.0
2022-08-17T11:19:00.406Z,879.1
2022-08-17T11:20:00.314Z,879.1
2022-08-17T11:21:00.628Z,879.1
2022-08-17T11:22:00.307Z,879.0
2022-08-17T11:23:00.357Z,879.0
2022-08-17T11:24:00.423Z,879.0
2022-08-17T11:25:00.388Z,879.0
2022-08-17T11:26:00.318Z,879.0
2022-08-17T11:27:00.436Z,879.0
2022-08-17T11:28:00.425Z,879.0
2022-08-17T11:29:00.379Z,879.0
2022-08-17T11:30:02.230Z,878.9
2022-08-17T11:31:00.429Z,879.0
2022-08-17T11:32:00.327Z,878.9
2022-08-17T11:33:00.615Z,878.9
2022-08-17T11:34:00.595Z,878.9
2022-08-17T11:35:00.346Z,878.9
2022-08-17T11:36:00.359Z,878.8
2022-08-17T11:37:00.719Z,878.9
2022-08-17T11:38:00.328Z,878.8
2022-08-17T11:39:00.431Z,878.8
2022-08-17T11:40:00.639Z,878.8
2022-08-17T11:41:00.301Z,878.8
2022-08-17T11:42:00.299Z,878.7
2022-08-17T11:43:00.550Z,878.7
2022-08-17T11:44:02.068Z,878.7
2022-08-17T11:45:00.296Z,878.7
2022-08-17T11:46:00.345Z,878.9
2022-08-17T11:47:00.311Z,878.8
2022-08-17T11:49:00.349Z,878.7
2022-08-17T11:50:00.427Z,878.7
2022-08-17T11:51:00.309Z,878.7
2022-08-17T11:52:00.342Z,878.7
2022-08-17T11:53:00.353Z,878.7
2022-08-17T11:54:30.518Z,878.6
2022-08-17T11:55:17.554Z,878.6
2022-08-17T11:56:00.399Z,878.7
2022-08-17T11:57:00.349Z,878.6
2022-08-17T11:58:00.317Z,878.6
2022-08-17T11:59:00.409Z,878.6
2022-08-17T12:00:00.375Z,878.6
2022-08-17T12:01:00.347Z,878.6
2022-08-17T12:02:00.455Z,878.6
2022-08-17T12:03:00.310Z,878.5
2022-08-17T12:04:00.384Z,878.6
2022-08-17T12:05:00.487Z,878.5
2022-08-17T12:06:00.545Z,878.5
2022-08-17T12:07:00.535Z,878.5
2022-08-17T12:08:00.674Z,878.5
2022-08-17T12:09:00.393Z,878.5
2022-08-17T12:10:00.419Z,878.4
2022-08-17T12:11:00.329Z,878.5
2022-08-17T12:12:13.351Z,878.5
2022-08-17T12:13:00.385Z,878.5
2022-08-17T12:14:00.407Z,878.5
2022-08-17T12:15:11.383Z,878.4
2022-08-17T12:16:00.341Z,878.5
2022-08-17T12:17:00.367Z,878.4
2022-08-17T12:18:00.409Z,878.5
2022-08-17T12:19:00.315Z,878.5
2022-08-17T12:20:00.464Z,878.4
2022-08-17T12:21:00.347Z,878.4
2022-08-17T12:22:00.298Z,878.4
2022-08-17T12:23:00.543Z,878.4
2022-08-17T12:24:00.322Z,878.4
2022-08-17T12:25:00.419Z,878.4
2022-08-17T12:26:00.595Z,878.4
2022-08-17T12:27:00.335Z,878.3
2022-08-17T12:28:06.442Z,878.4
2022-08-17T12:29:00.307Z,878.4
2022-08-17T12:30:00.356Z,878.4
2022-08-17T12:31:00.340Z,878.5
2022-08-17T12:32:00.406Z,878.5
2022-08-17T12:33:00.573Z,878.4
2022-08-17T12:34:00.435Z,878.3
2022-08-17T12:35:00.447Z,878.4
2022-08-17T12:36:00.489Z,878.4
2022-08-17T12:37:00.280Z,878.4
2022-08-17T12:38:00.569Z,878.4
2022-08-17T12:39:12.865Z,878.3
2022-08-17T12:40:00.493Z,878.3
2022-08-17T12:41:00.292Z,878.4
2022-08-17T12:42:02.693Z,878.4
2022-08-17T12:43:00.337Z,878.4
2022-08-17T12:44:00.367Z,878.3
2022-08-17T12:45:00.377Z,878.4
2022-08-17T12:46:00.320Z,878.4
2022-08-17T12:47:00.317Z,878.4
2022-08-17T12:48:00.307Z,878.3
2022-08-17T12:49:00.454Z,878.3
2022-08-17T12:50:00.378Z,878.3
2022-08-17T12:51:00.312Z,878.4
2022-08-17T12:52:00.339Z,878.4
2022-08-17T12:53:02.481Z,878.3